createdAt,value
2018-02-10T00:00:23.059Z,29.10
2018-02-10T00:02:50.556Z,35.60
2018-02-10T00:05:18.038Z,33.67
2018-02-10T00:07:45.544Z,34.53
2018-02-10T00:10:13.031Z,35.37
2018-02-10T00:12:40.540Z,32.63
2018-02-10T00:15:08.024Z,33.40
2018-02-10T00:17:35.497Z,32.60
2018-02-10T00:20:03.001Z,31.47
2018-02-10T00:22:35.169Z,29.37
2018-02-10T00:25:02.722Z,31.77
2018-02-10T00:27:30.204Z,29.00
2018-02-10T00:29:57.680Z,32.43
2018-02-10T00:32:25.177Z,30.33
2018-02-10T00:34:53.422Z,33.30
2018-02-10T00:37:20.941Z,31.50
2018-02-10T00:39:48.416Z,27.37
2018-02-10T00:42:15.906Z,27.67
2018-02-10T00:44:43.380Z,31.53
2018-02-10T00:47:11.650Z,30.20
2018-02-10T00:49:39.888Z,29.80
2018-02-10T00:52:07.402Z,29.70
2018-02-10T00:54:34.862Z,26.20
2018-02-10T00:57:02.374Z,26.13
2018-02-10T00:59:29.839Z,25.93
2018-02-10T01:01:57.335Z,26.93
2018-02-10T01:04:24.814Z,24.67
2018-02-10T01:06:52.355Z,23.00
2018-02-10T01:09:19.836Z,24.30
2018-02-10T01:11:47.364Z,25.20
2018-02-10T01:14:14.944Z,26.97
2018-02-10T01:16:42.541Z,25.17
2018-02-10T01:19:10.006Z,23.23
2018-02-10T01:21:37.492Z,25.90
2018-02-10T01:24:05.784Z,23.43
2018-02-10T01:26:33.242Z,25.37
2018-02-10T01:29:00.745Z,23.67
2018-02-10T01:31:28.225Z,25.67
2018-02-10T01:33:55.717Z,28.23
2018-02-10T01:36:23.221Z,22.33
2018-02-10T01:38:50.702Z,27.83
2018-02-10T01:41:18.952Z,23.60
2018-02-10T01:43:46.450Z,22.73
2018-02-10T01:46:14.692Z,25.77
2018-02-10T01:48:42.194Z,22.97
2018-02-10T01:51:09.667Z,24.40
2018-02-10T01:53:38.052Z,21.93
2018-02-10T01:56:05.519Z,24.03
2018-02-10T01:58:33.025Z,20.13
2018-02-10T02:01:01.272Z,24.73
2018-02-10T02:03:28.766Z,22.23
2018-02-10T02:05:57.025Z,21.13
2018-02-10T02:08:24.548Z,21.53
2018-02-10T02:10:52.057Z,24.43
2018-02-10T02:13:20.316Z,22.23
2018-02-10T02:15:47.818Z,24.40
2018-02-10T02:18:15.314Z,22.77
2018-02-10T02:20:42.824Z,23.07
2018-02-10T02:23:10.294Z,24.77
2018-02-10T02:25:37.855Z,26.30
2018-02-10T02:28:05.356Z,25.47
2018-02-10T02:30:32.827Z,24.47
2018-02-10T02:33:00.299Z,23.80
2018-02-10T02:35:28.572Z,22.40
2018-02-10T02:37:56.800Z,23.57
2018-02-10T02:40:24.336Z,24.43
2018-02-10T02:42:52.552Z,24.13
2018-02-10T02:45:20.063Z,22.40
2018-02-10T02:47:47.567Z,22.70
2018-02-10T02:50:15.053Z,23.67
2018-02-10T02:52:43.736Z,26.80
2018-02-10T02:55:11.972Z,25.27
2018-02-10T02:57:39.443Z,25.63
2018-02-10T03:00:06.952Z,25.97
2018-02-10T03:02:34.438Z,23.00
2018-02-10T03:05:01.985Z,23.80
2018-02-10T03:07:29.487Z,26.27
2018-02-10T03:09:56.983Z,21.57
2018-02-10T03:12:24.451Z,22.07
2018-02-10T03:14:51.946Z,20.90
2018-02-10T03:17:19.456Z,18.73
2018-02-10T03:19:46.956Z,27.07
2018-02-10T03:22:14.449Z,26.43
2018-02-10T03:24:41.943Z,22.70
2018-02-10T03:27:09.426Z,20.70
2018-02-10T03:29:36.915Z,20.30
2018-02-10T03:32:04.398Z,21.73
2018-02-10T03:34:32.692Z,22.03
2018-02-10T03:37:00.160Z,23.27
2018-02-10T03:39:27.652Z,25.03
2018-02-10T03:41:55.138Z,24.70
2018-02-10T03:44:23.404Z,25.50
2018-02-10T03:46:50.877Z,22.33
2018-02-10T03:49:19.165Z,26.13
2018-02-10T03:51:46.621Z,23.47
2018-02-10T03:54:14.128Z,23.63
2018-02-10T03:56:41.595Z,21.67
2018-02-10T03:59:09.083Z,24.33
2018-02-10T04:01:37.334Z,23.97
2018-02-10T04:04:04.840Z,24.77
2018-02-10T04:06:32.312Z,22.57
2018-02-10T04:08:59.911Z,24.30
2018-02-10T04:11:27.379Z,25.03
2018-02-10T04:13:55.640Z,23.70
2018-02-10T04:16:23.147Z,25.00
2018-02-10T04:18:50.636Z,28.50
2018-02-10T04:21:18.120Z,31.50
2018-02-10T04:23:45.629Z,32.13
2018-02-10T04:26:13.109Z,32.70
2018-02-10T04:28:40.612Z,32.57
2018-02-10T04:31:08.852Z,31.27
2018-02-10T04:33:36.356Z,28.93
2018-02-10T04:36:03.819Z,32.40
2018-02-10T04:38:31.328Z,29.23
2018-02-10T04:40:58.794Z,32.33
2018-02-10T04:43:26.311Z,28.77
2018-02-10T04:45:53.807Z,31.10
2018-02-10T04:48:21.304Z,29.47
2018-02-10T04:50:48.783Z,33.80
2018-02-10T04:53:16.304Z,31.30
2018-02-10T04:55:44.537Z,30.23
2018-02-10T04:58:11.999Z,28.23
2018-02-10T05:00:39.520Z,27.20
2018-02-10T05:03:07.012Z,30.13
2018-02-10T05:05:34.484Z,29.73
2018-02-10T05:08:01.987Z,28.30
2018-02-10T05:10:29.463Z,27.77
2018-02-10T05:12:56.944Z,28.23
2018-02-10T05:15:24.448Z,29.33
2018-02-10T05:17:52.674Z,27.37
2018-02-10T05:20:20.188Z,26.57
2018-02-10T05:22:48.476Z,27.23
2018-02-10T05:25:15.939Z,26.57
2018-02-10T05:27:43.406Z,25.07
2018-02-10T05:30:10.910Z,27.70
2018-02-10T05:32:38.384Z,27.20
2018-02-10T05:35:06.647Z,25.90
2018-02-10T05:37:34.116Z,27.63
2018-02-10T05:40:02.384Z,25.67
2018-02-10T05:42:30.624Z,25.03
2018-02-10T05:44:58.136Z,26.03
2018-02-10T05:47:25.617Z,24.33
2018-02-10T05:49:53.107Z,26.07
2018-02-10T05:52:20.571Z,22.43
2018-02-10T05:54:48.071Z,19.83
2018-02-10T05:57:15.544Z,21.77
2018-02-10T05:59:43.048Z,22.03
2018-02-10T06:02:10.538Z,23.67
2018-02-10T06:04:38.803Z,22.07
2018-02-10T06:07:07.043Z,18.53
2018-02-10T06:09:34.555Z,19.03
2018-02-10T06:12:02.019Z,21.90
2018-02-10T06:14:29.511Z,20.60
2018-02-10T06:16:56.992Z,18.20
2018-02-10T06:19:24.485Z,21.00
2018-02-10T06:21:51.968Z,21.13
2018-02-10T06:24:19.576Z,18.83
2018-02-10T06:26:47.037Z,18.43
2018-02-10T06:29:15.281Z,18.97
2018-02-10T06:31:42.771Z,21.00
2018-02-10T06:34:10.248Z,20.00
2018-02-10T06:36:38.525Z,21.70
2018-02-10T06:39:06.752Z,21.77
2018-02-10T06:41:34.242Z,23.83
2018-02-10T06:44:02.475Z,21.40
2018-02-10T06:46:29.999Z,22.57
2018-02-10T06:48:57.464Z,22.23
2018-02-10T06:51:24.974Z,24.03
2018-02-10T06:53:52.456Z,22.73
2018-02-10T06:56:20.712Z,21.93
2018-02-10T06:58:48.201Z,20.93
2018-02-10T07:01:15.710Z,20.63
2018-02-10T07:03:43.166Z,21.50
2018-02-10T07:06:10.667Z,24.50
2018-02-10T07:08:38.960Z,24.00
2018-02-10T07:11:06.435Z,23.50
2018-02-10T07:13:33.898Z,22.67
2018-02-10T07:16:01.408Z,21.70
2018-02-10T07:18:28.910Z,23.00
2018-02-10T07:20:56.384Z,24.20
2018-02-10T07:23:24.088Z,19.00
2018-02-10T07:25:52.435Z,23.97
2018-02-10T07:28:19.884Z,20.50
2018-02-10T07:30:48.158Z,20.90
2018-02-10T07:33:15.781Z,19.73
2018-02-10T07:35:43.273Z,19.97
2018-02-10T07:38:10.745Z,20.60
2018-02-10T07:40:38.244Z,19.80
2018-02-10T07:43:06.487Z,20.17
2018-02-10T07:45:33.988Z,20.80
2018-02-10T07:48:02.218Z,19.90
2018-02-10T07:50:29.735Z,19.53
2018-02-10T07:52:57.212Z,18.70
2018-02-10T07:55:24.712Z,18.43
2018-02-10T07:57:52.951Z,16.63
2018-02-10T08:00:20.442Z,16.50
2018-02-10T08:02:47.896Z,18.83
2018-02-10T08:05:15.400Z,16.67
2018-02-10T08:07:42.887Z,15.50
2018-02-10T08:10:10.381Z,13.60
2018-02-10T08:12:38.630Z,14.47
2018-02-10T08:15:06.152Z,13.17
2018-02-10T08:17:33.615Z,14.00
2018-02-10T08:20:01.135Z,14.93
2018-02-10T08:22:29.388Z,15.37
2018-02-10T08:24:56.911Z,14.23
2018-02-10T08:27:24.380Z,15.10
2018-02-10T08:29:51.881Z,15.20
2018-02-10T08:32:20.111Z,15.17
2018-02-10T08:34:47.609Z,16.07
2018-02-10T08:37:15.084Z,15.83
2018-02-10T08:39:42.592Z,14.37
2018-02-10T08:42:10.075Z,14.00
2018-02-10T08:44:37.578Z,13.60
2018-02-10T08:47:05.119Z,13.67
2018-02-10T08:49:32.591Z,13.50
2018-02-10T08:52:00.084Z,12.20
2018-02-10T08:54:27.574Z,14.27
2018-02-10T08:56:55.046Z,17.17
2018-02-10T08:59:22.571Z,16.53
2018-02-10T09:01:50.058Z,17.93
2018-02-10T09:04:18.316Z,16.47
2018-02-10T09:06:45.797Z,14.33
2018-02-10T09:09:14.072Z,15.17
2018-02-10T09:11:42.319Z,13.73
2018-02-10T09:14:09.811Z,13.97
2018-02-10T09:16:37.306Z,14.97
2018-02-10T09:19:04.944Z,14.47
2018-02-10T09:21:32.412Z,15.33
2018-02-10T09:23:59.906Z,15.70
2018-02-10T09:26:27.389Z,16.43
2018-02-10T09:28:55.793Z,15.60
2018-02-10T09:31:23.263Z,17.00
2018-02-10T09:33:50.752Z,17.67
2018-02-10T09:36:18.251Z,18.77
2018-02-10T09:38:45.724Z,18.13
2018-02-10T09:41:13.238Z,18.77
2018-02-10T09:43:40.714Z,20.63
2018-02-10T09:46:08.982Z,20.90
2018-02-10T09:48:37.246Z,18.80
2018-02-10T09:51:04.887Z,21.67
2018-02-10T09:53:41.291Z,23.97
2018-02-10T09:56:10.308Z,21.60
2018-02-10T09:58:37.784Z,20.00
2018-02-10T10:01:05.281Z,20.87
2018-02-10T10:03:32.756Z,19.53
2018-02-10T10:06:01.057Z,18.27
2018-02-10T10:08:31.143Z,21.60
2018-02-10T10:10:58.767Z,19.77
2018-02-10T10:13:26.240Z,20.10
2018-02-10T10:15:53.749Z,20.63
2018-02-10T10:18:21.320Z,19.47
2018-02-10T10:20:48.808Z,20.97
2018-02-10T10:23:16.281Z,21.57
2018-02-10T10:25:43.775Z,21.30
2018-02-10T10:28:11.273Z,19.93
2018-02-10T10:30:38.774Z,18.83
2018-02-10T10:33:07.029Z,20.30
2018-02-10T10:35:34.581Z,18.97
2018-02-10T10:38:02.068Z,18.53
2018-02-10T10:40:30.359Z,18.87
2018-02-10T10:42:57.867Z,17.60
2018-02-10T10:45:25.373Z,18.43
2018-02-10T10:47:53.635Z,17.50
2018-02-10T10:50:21.900Z,15.60
2018-02-10T10:52:49.384Z,15.43
2018-02-10T10:55:16.874Z,17.43
2018-02-10T10:57:44.363Z,18.07
2018-02-10T11:00:11.871Z,18.20
2018-02-10T11:02:39.382Z,16.33
2018-02-10T11:05:06.898Z,15.63
2018-02-10T11:07:34.379Z,14.30
2018-02-10T11:10:01.874Z,15.87
2018-02-10T11:12:30.126Z,16.27
2018-02-10T11:14:57.648Z,14.97
2018-02-10T11:17:25.131Z,18.40
2018-02-10T11:19:52.693Z,16.93
2018-02-10T11:22:20.163Z,17.13
2018-02-10T11:24:47.698Z,18.20
2018-02-10T11:27:15.411Z,18.93
2018-02-10T11:29:43.704Z,17.93
2018-02-10T11:32:11.172Z,23.13
2018-02-10T11:34:38.675Z,16.87
2018-02-10T11:37:06.155Z,15.53
2018-02-10T11:39:34.426Z,16.97
2018-02-10T11:42:01.915Z,16.83
2018-02-10T11:44:29.426Z,16.67
2018-02-10T11:46:56.910Z,17.37
2018-02-10T11:49:25.173Z,15.77
2018-02-10T11:51:52.642Z,17.00
2018-02-10T11:54:20.917Z,16.30
2018-02-10T11:56:49.163Z,15.77
2018-02-10T11:59:16.646Z,15.30
2018-02-10T12:01:44.905Z,15.27
2018-02-10T12:04:12.395Z,14.93
2018-02-10T12:06:40.669Z,15.37
2018-02-10T12:09:08.972Z,14.43
2018-02-10T12:11:36.442Z,14.47
2018-02-10T12:14:03.958Z,13.90
2018-02-10T12:16:32.203Z,15.93
2018-02-10T12:18:59.689Z,15.70
2018-02-10T12:21:27.979Z,16.70
2018-02-10T12:23:55.545Z,15.17
2018-02-10T12:26:23.028Z,13.63
2018-02-10T12:28:50.504Z,14.20
2018-02-10T12:31:17.999Z,14.40
2018-02-10T12:33:46.321Z,14.03
2018-02-10T12:36:13.838Z,14.27
2018-02-10T12:38:42.079Z,14.20
2018-02-10T12:41:09.561Z,13.53
2018-02-10T12:43:37.795Z,14.87
2018-02-10T12:46:05.302Z,13.37
2018-02-10T12:48:39.168Z,13.97
2018-02-10T12:51:06.661Z,12.93
2018-02-10T12:53:34.900Z,12.67
2018-02-10T12:56:02.356Z,14.07
2018-02-10T12:58:29.868Z,13.00
2018-02-10T13:00:57.390Z,15.17
2018-02-10T13:03:24.868Z,14.77
2018-02-10T13:05:53.133Z,15.63
2018-02-10T13:08:20.600Z,15.07
2018-02-10T13:10:48.875Z,17.87
2018-02-10T13:13:16.352Z,12.27
2018-02-10T13:15:44.618Z,14.37
2018-02-10T13:18:12.870Z,15.03
2018-02-10T13:20:40.756Z,15.70
2018-02-10T13:23:09.008Z,14.30
2018-02-10T13:25:36.497Z,14.53
2018-02-10T13:28:04.792Z,17.00
2018-02-10T13:30:32.268Z,16.23
2018-02-10T13:32:59.779Z,16.83
2018-02-10T13:35:28.031Z,18.67
2018-02-10T13:37:56.332Z,15.20
2018-02-10T13:40:23.821Z,16.07
2018-02-10T13:42:51.332Z,18.10
2018-02-10T13:45:18.816Z,19.00
2018-02-10T13:47:47.080Z,19.60
2018-02-10T13:50:15.326Z,18.63
2018-02-10T13:52:42.819Z,13.87
2018-02-10T13:55:11.064Z,13.70
2018-02-10T13:57:38.568Z,16.53
2018-02-10T14:00:06.052Z,14.77
2018-02-10T14:02:33.543Z,11.67
2018-02-10T14:05:01.034Z,12.97
2018-02-10T14:07:29.320Z,12.23
2018-02-10T14:09:56.849Z,12.50
2018-02-10T14:12:24.371Z,11.97
2018-02-10T14:14:51.870Z,13.07
2018-02-10T14:17:20.176Z,21.73
2018-02-10T14:19:47.650Z,17.83
2018-02-10T14:22:15.156Z,12.70
2018-02-10T14:24:43.055Z,10.60
2018-02-10T14:27:10.598Z,20.23
2018-02-10T14:29:38.078Z,15.90
2018-02-10T14:32:05.584Z,17.37
2018-02-10T14:34:33.046Z,13.33
2018-02-10T14:37:00.558Z,11.67
2018-02-10T14:39:28.019Z,11.97
2018-02-10T14:41:55.525Z,13.53
2018-02-10T14:44:22.996Z,13.47
2018-02-10T14:46:50.503Z,11.90
2018-02-10T14:49:17.973Z,12.77
2018-02-10T14:51:45.475Z,12.73
2018-02-10T14:54:13.721Z,11.37
2018-02-10T14:56:41.206Z,12.80
2018-02-10T14:59:09.488Z,11.80
2018-02-10T15:01:37.743Z,11.90
2018-02-10T15:04:05.274Z,10.60
2018-02-10T15:06:32.749Z,11.30
2018-02-10T15:09:00.260Z,10.67
2018-02-10T15:11:27.768Z,11.60
2018-02-10T15:13:55.325Z,12.00
2018-02-10T15:16:22.786Z,11.53
2018-02-10T15:18:50.304Z,14.07
2018-02-10T15:21:17.764Z,11.80
2018-02-10T15:23:45.272Z,11.50
2018-02-10T15:26:12.763Z,12.13
2018-02-10T15:28:41.008Z,12.43
2018-02-10T15:31:20.486Z,11.70
2018-02-10T15:34:00.001Z,11.93
2018-02-10T15:36:28.253Z,11.60
2018-02-10T15:38:55.755Z,10.80
2018-02-10T15:41:23.234Z,10.67
2018-02-10T15:43:50.746Z,12.10
2018-02-10T15:46:18.997Z,12.60
2018-02-10T15:48:46.513Z,12.03
2018-02-10T15:51:14.001Z,12.30
2018-02-10T15:53:41.508Z,12.00
2018-02-10T15:56:08.989Z,11.23
2018-02-10T15:58:36.492Z,10.37
2018-02-10T16:01:03.979Z,13.20
2018-02-10T16:03:32.257Z,12.70
2018-02-10T16:06:00.549Z,13.07
2018-02-10T16:08:28.042Z,12.87
2018-02-10T16:10:55.540Z,12.63
2018-02-10T16:13:23.804Z,14.57
2018-02-10T16:15:51.294Z,12.53
2018-02-10T16:18:18.834Z,13.97
2018-02-10T16:20:47.074Z,15.07
2018-02-10T16:23:14.581Z,20.63
2018-02-10T16:25:42.066Z,14.80
2018-02-10T16:28:09.599Z,14.43
2018-02-10T16:30:37.059Z,12.13
2018-02-10T16:33:04.555Z,14.67
2018-02-10T16:35:32.075Z,17.77
2018-02-10T16:37:59.582Z,15.50
2018-02-10T16:40:27.084Z,15.10
2018-02-10T16:42:54.573Z,15.93
2018-02-10T16:45:22.081Z,21.03
2018-02-10T16:47:50.327Z,22.27
2018-02-10T16:50:17.830Z,19.77
2018-02-10T16:52:46.072Z,17.30
2018-02-10T16:55:13.581Z,17.03
2018-02-10T16:57:41.051Z,19.27
2018-02-10T17:00:08.591Z,16.17
2018-02-10T17:02:36.100Z,21.37
2018-02-10T17:05:03.608Z,19.27
2018-02-10T17:07:31.078Z,24.60
2018-02-10T17:09:58.586Z,19.73
2018-02-10T17:12:26.064Z,16.20
2018-02-10T17:14:54.333Z,19.27
2018-02-10T17:17:22.581Z,20.57
2018-02-10T17:19:50.201Z,22.70
2018-02-10T17:22:17.692Z,18.47
2018-02-10T17:24:45.207Z,12.87
2018-02-10T17:27:12.694Z,10.50
2018-02-10T17:29:40.198Z,10.90
2018-02-10T17:32:08.442Z,9.47
2018-02-10T17:34:35.984Z,9.57
2018-02-10T17:37:03.449Z,9.00
2018-02-10T17:39:30.987Z,9.03
2018-02-10T17:41:58.454Z,8.40
2018-02-10T17:44:25.981Z,8.40
2018-02-10T17:46:54.243Z,8.23
2018-02-10T17:49:21.719Z,8.33
2018-02-10T17:51:50.053Z,8.30
2018-02-10T17:54:17.597Z,8.73
2018-02-10T17:56:45.067Z,9.37
2018-02-10T17:59:12.556Z,14.93
2018-02-10T18:01:41.606Z,11.83
2018-02-10T18:04:09.126Z,10.57
2018-02-10T18:06:36.593Z,8.87
2018-02-10T18:09:04.111Z,13.13
2018-02-10T18:11:31.612Z,14.40
2018-02-10T18:13:59.084Z,11.80
2018-02-10T18:16:26.603Z,12.00
2018-02-10T18:18:54.868Z,13.77
2018-02-10T18:21:23.142Z,12.93
2018-02-10T18:23:51.390Z,12.97
2018-02-10T18:26:18.905Z,17.07
2018-02-10T18:28:46.387Z,13.73
2018-02-10T18:31:13.910Z,17.47
2018-02-10T18:33:42.255Z,15.50
2018-02-10T18:36:09.754Z,16.57
2018-02-10T18:38:37.226Z,15.00
2018-02-10T18:41:04.818Z,15.30
2018-02-10T18:43:32.297Z,15.30
2018-02-10T18:46:00.542Z,15.70
2018-02-10T18:48:28.485Z,13.80
2018-02-10T18:50:55.973Z,14.80
2018-02-10T18:53:23.459Z,16.10
2018-02-10T18:55:50.976Z,20.07
2018-02-10T18:58:19.247Z,18.23
2018-02-10T19:00:46.728Z,13.47
2018-02-10T19:03:14.245Z,12.97
2018-02-10T19:05:41.718Z,15.77
2018-02-10T19:08:09.211Z,16.90
2018-02-10T19:10:36.692Z,22.00
2018-02-10T19:13:05.001Z,19.37
2018-02-10T19:15:32.491Z,22.67
2018-02-10T19:18:00.025Z,24.50
2018-02-10T19:20:27.508Z,20.27
2018-02-10T19:22:55.139Z,15.50
2018-02-10T19:25:22.635Z,17.00
2018-02-10T19:27:50.141Z,18.93
2018-02-10T19:30:17.670Z,17.67
2018-02-10T19:32:45.184Z,20.57
2018-02-10T19:35:12.691Z,24.00
2018-02-10T19:37:40.194Z,23.13
2018-02-10T19:40:07.689Z,29.87
2018-02-10T19:42:35.307Z,20.50
2018-02-10T19:45:02.824Z,19.90
2018-02-10T19:47:30.299Z,19.73
2018-02-10T19:49:57.881Z,20.67
2018-02-10T19:52:25.364Z,22.57
2018-02-10T19:54:52.929Z,19.20
2018-02-10T19:57:20.420Z,19.53
2018-02-10T19:59:48.697Z,20.27
2018-02-10T20:02:16.931Z,24.00
2018-02-10T20:04:44.457Z,20.30
2018-02-10T20:07:11.957Z,24.47
2018-02-10T20:09:39.448Z,21.33
2018-02-10T20:12:07.715Z,16.37
2018-02-10T20:14:35.218Z,17.03
2018-02-10T20:17:02.708Z,16.97
2018-02-10T20:19:30.238Z,19.17
2018-02-10T20:21:57.732Z,17.93
2018-02-10T20:24:25.257Z,18.77
2018-02-10T20:26:52.738Z,19.53
2018-02-10T20:29:20.991Z,18.60
2018-02-10T20:31:48.476Z,18.70
2018-02-10T20:34:15.968Z,15.93
2018-02-10T20:36:43.475Z,19.63
2018-02-10T20:39:11.181Z,18.73
2018-02-10T20:41:38.683Z,17.20
2018-02-10T20:44:06.215Z,15.83
2018-02-10T20:46:34.468Z,15.87
2018-02-10T20:49:01.992Z,17.97
2018-02-10T20:51:29.536Z,15.13
2018-02-10T20:53:57.010Z,14.80
2018-02-10T20:56:24.527Z,14.60
2018-02-10T20:58:52.777Z,15.37
2018-02-10T21:01:20.294Z,15.60
2018-02-10T21:03:47.771Z,15.73
2018-02-10T21:06:15.284Z,14.73
2018-02-10T21:08:42.761Z,16.07
2018-02-10T21:11:10.260Z,16.23
2018-02-10T21:13:37.757Z,16.27
2018-02-10T21:16:05.265Z,16.27
2018-02-10T21:18:32.748Z,15.20
2018-02-10T21:21:00.430Z,16.30
2018-02-10T21:23:27.969Z,16.93
2018-02-10T21:25:56.280Z,17.90
2018-02-10T21:28:23.788Z,15.63
2018-02-10T21:30:51.332Z,15.03
2018-02-10T21:33:18.838Z,14.10
2018-02-10T21:35:47.062Z,14.40
2018-02-10T21:38:14.567Z,16.53
2018-02-10T21:40:42.822Z,13.63
2018-02-10T21:43:10.334Z,13.73
2018-02-10T21:45:37.825Z,14.60
2018-02-10T21:48:05.348Z,13.90
2018-02-10T21:50:32.837Z,14.37
2018-02-10T21:53:00.394Z,14.67
2018-02-10T21:55:27.864Z,13.97
2018-02-10T21:57:55.394Z,13.50
2018-02-10T22:00:22.892Z,12.67
2018-02-10T22:02:51.578Z,13.07
2018-02-10T22:05:19.822Z,14.17
2018-02-10T22:07:47.303Z,12.20
2018-02-10T22:10:14.804Z,13.40
2018-02-10T22:12:42.318Z,14.40
2018-02-10T22:15:09.798Z,14.80
2018-02-10T22:17:38.067Z,14.33
2018-02-10T22:20:06.302Z,14.20
2018-02-10T22:22:33.813Z,14.67
2018-02-10T22:25:02.110Z,14.57
2018-02-10T22:27:29.607Z,15.43
2018-02-10T22:29:57.079Z,14.27
2018-02-10T22:32:24.590Z,14.73
2018-02-10T22:34:52.064Z,14.23
2018-02-10T22:37:19.576Z,14.07
2018-02-10T22:39:47.088Z,14.87
2018-02-10T22:42:14.607Z,13.23
2018-02-10T22:44:42.474Z,13.60
2018-02-10T22:47:09.949Z,13.13
2018-02-10T22:49:37.443Z,13.27
2018-02-10T22:52:04.924Z,14.17
2018-02-10T22:54:33.195Z,13.07
2018-02-10T22:57:00.660Z,12.57
2018-02-10T22:59:28.936Z,11.83
2018-02-10T23:01:57.188Z,12.07
2018-02-10T23:04:24.680Z,12.40
2018-02-10T23:06:52.165Z,12.13
2018-02-10T23:09:19.685Z,12.20
2018-02-10T23:11:47.924Z,12.13
2018-02-10T23:14:15.449Z,11.63
2018-02-10T23:16:42.928Z,11.73
2018-02-10T23:19:10.475Z,11.00
2018-02-10T23:21:37.953Z,11.57
2018-02-10T23:24:05.483Z,11.73
2018-02-10T23:26:32.946Z,11.53
2018-02-10T23:29:00.453Z,9.70
2018-02-10T23:31:27.932Z,9.80
2018-02-10T23:33:56.195Z,11.13
2018-02-10T23:36:23.670Z,10.73
2018-02-10T23:38:51.168Z,10.60
2018-02-10T23:41:18.637Z,10.97
2018-02-10T23:43:46.134Z,10.87
2018-02-10T23:46:14.367Z,10.47
2018-02-10T23:48:41.862Z,11.67
2018-02-10T23:51:10.101Z,10.87
2018-02-10T23:53:38.390Z,10.97
2018-02-10T23:56:05.870Z,11.13
2018-02-10T23:58:34.144Z,11.20
